Flugplatz Leverkusen

Für EDKL sind keine METAR/TAF Berichte vorhanden.
Es werden die Flugwettermeldungen vom Flugplatz Cologne Bonn in 19 km Entfernung angezeigt.

Bericht für EDDK

vom 25.01. um 22:50 UTC

Wind 5 kt aus 110°

Sichtweite 6000 m

bedeckt in 300 ft

Temperatur 2.0°C

Taupunkt 1.0°C

Luftfeuchtigkeit 93%

Luftdruck 1020 hPa

EDDK 252250Z 11005KT 080V140 6000 OVC003 02/01 Q1020 BECMG 4000 BR

Prognose für EDDK

vom 25.01. um 00:00 UTC

Am 25.01. zwischen 00:00 UTC und 00:00 UTC

Wind 7 kt aus 130°

Sichtweite 10 km oder mehr

bedeckt in 400 ft


Am 25.01. zwischen 00:00 UTC und 00:00 UTC zeitweise

Sichtweite 2000 m

feuchter Dunst


Zwischen 00:00 und 00:00 UTC übergehend zu

Wind 7 kt aus 130°

Sichtweite 10 km oder mehr

aufgebrochene Bewölkung in 1200 ft


Zwischen 00:00 und 00:00 UTC übergehend zu

Wind 7 kt aus 130°

Sichtweite 10 km oder mehr

aufgebrochene Bewölkung in 4000 ft

TAF AMD EDDK 252130Z 2521/2624 13007KT 9999 OVC004 TEMPO 2523/2606 2000 BR BECMG 2603/2606 BKN012 BECMG 2609/2612 BKN040
Impressum